Time;durP1;ratioP1;P1;durP2;ratioP2;P2;SDS_P1;SDS_P2;PMS_P1;PMS_P2;Temp;Humidity;BMP_temperature;BMP_pressure;BME280_temperature;BME280_humidity;BME280_pressure;Samples;Min_cycle;Max_cycle;Signal;HPM_P1;HPM_P2
2022/11/25 00:00:51;;;;;;;42.40;3.30;;;;;;;;;;6217311;23;20046;-92
2022/11/25 00:03:17;;;;;;;18.73;3.13;;;;;;;;;;6193352;23;20019;-92
2022/11/25 00:05:43;;;;;;;8.68;2.13;;;;;;;;;;6190992;23;20015;-93
2022/11/25 00:08:09;;;;;;;20.20;2.47;;;;;;;;;;6216515;23;20003;-92
2022/11/25 00:10:35;;;;;;;16.35;3.42;;;;;;;;;;6215304;22;20078;-92
2022/11/25 00:13:01;;;;;;;27.75;3.70;;;;;;;;;;6218672;23;20070;-91
2022/11/25 00:15:27;;;;;;;6.70;1.60;;;;;;;;;;6190953;23;20043;-92
2022/11/25 00:17:53;;;;;;;26.77;3.58;;;;;;;;;;6193248;23;20009;-92
2022/11/25 00:20:20;;;;;;;26.02;3.47;;;;;;;;;;6191959;23;20528;-93
2022/11/25 00:22:46;;;;;;;21.85;2.25;;;;;;;;;;6192428;23;20444;-92
2022/11/25 00:25:12;;;;;;;9.77;2.58;;;;;;;;;;6216925;23;20012;-92
2022/11/25 00:27:38;;;;;;;19.52;3.17;;;;;;;;;;6217845;23;20077;-91
2022/11/25 00:30:05;;;;;;;15.38;3.03;;;;;;;;;;6191195;23;20039;-92
2022/11/25 00:32:31;;;;;;;13.13;3.70;;;;;;;;;;6215985;23;20031;-92
2022/11/25 00:34:57;;;;;;;12.35;3.13;;;;;;;;;;6215970;23;20082;-91
2022/11/25 00:37:23;;;;;;;4.65;1.10;;;;;;;;;;6190744;23;20050;-92
2022/11/25 00:39:49;;;;;;;8.35;2.05;;;;;;;;;;6189976;23;20074;-91
2022/11/25 00:45:00;;;;;;;19.58;3.28;;;;;;;;;;6220482;23;20030;-93
2022/11/25 00:47:26;;;;;;;19.17;3.65;;;;;;;;;;6190846;23;20035;-91
2022/11/25 00:49:53;;;;;;;15.88;3.00;;;;;;;;;;6190242;23;20519;-91
2022/11/25 00:52:24;;;;;;;10.55;2.90;;;;;;;;;;6216453;23;20004;-91
2022/11/25 00:54:51;;;;;;;15.18;3.20;;;;;;;;;;6213806;23;20004;-91
2022/11/25 00:57:18;;;;;;;5.90;2.25;;;;;;;;;;6216060;23;20008;-91
2022/11/25 00:59:44;;;;;;;15.23;3.00;;;;;;;;;;6215496;23;20014;-93
2022/11/25 01:02:11;;;;;;;15.70;4.82;;;;;;;;;;6212149;23;20016;-92
2022/11/25 01:04:44;;;;;;;2.88;1.30;;;;;;;;;;6191980;23;20008;-92
2022/11/25 01:07:10;;;;;;;12.68;3.35;;;;;;;;;;6190792;23;20020;-92
2022/11/25 01:09:36;;;;;;;17.58;3.60;;;;;;;;;;6192960;22;20016;-92
2022/11/25 01:12:02;;;;;;;17.63;4.20;;;;;;;;;;6215277;23;20059;-93
2022/11/25 01:14:28;;;;;;;15.32;2.95;;;;;;;;;;6216742;23;20015;-92
2022/11/25 01:16:55;;;;;;;21.17;3.67;;;;;;;;;;6215632;23;20027;-92
2022/11/25 01:19:21;;;;;;;22.67;4.60;;;;;;;;;;6185091;23;20008;-94
2022/11/25 01:21:47;;;;;;;17.02;4.22;;;;;;;;;;6214668;23;20439;-91
2022/11/25 01:24:14;;;;;;;27.52;3.40;;;;;;;;;;6189841;23;20587;-93
2022/11/25 01:26:40;;;;;;;19.45;3.50;;;;;;;;;;6188955;23;20043;-93
2022/11/25 01:29:11;;;;;;;17.60;3.95;;;;;;;;;;6213326;23;20008;-92
2022/11/25 01:31:37;;;;;;;13.07;2.72;;;;;;;;;;6211655;23;20468;-93
2022/11/25 01:34:05;;;;;;;19.27;2.72;;;;;;;;;;6215478;23;20020;-91
2022/11/25 01:36:31;;;;;;;11.70;3.47;;;;;;;;;;6215844;23;20070;-92
2022/11/25 01:38:59;;;;;;;20.58;3.40;;;;;;;;;;6216747;23;20004;-92
2022/11/25 01:41:26;;;;;;;17.48;4.13;;;;;;;;;;6215319;23;20039;-92
2022/11/25 01:44:06;;;;;;;14.43;3.58;;;;;;;;;;6214382;23;20008;-92
2022/11/25 01:46:47;;;;;;;16.85;3.67;;;;;;;;;;6213883;23;20012;-92
2022/11/25 01:49:23;;;;;;;13.10;3.72;;;;;;;;;;6213487;23;20035;-92
2022/11/25 01:51:53;;;;;;;19.23;4.47;;;;;;;;;;6214724;23;20088;-91
2022/11/25 01:54:22;;;;;;;13.07;2.25;;;;;;;;;;6213980;23;20040;-92
2022/11/25 01:57:11;;;;;;;16.48;3.80;;;;;;;;;;6214121;23;20008;-93
2022/11/25 01:59:44;;;;;;;19.85;3.33;;;;;;;;;;6213323;23;20460;-92
2022/11/25 02:02:10;;;;;;;15.65;3.92;;;;;;;;;;6213945;23;20012;-92
2022/11/25 02:04:38;;;;;;;17.90;3.78;;;;;;;;;;6214098;23;20036;-92
2022/11/25 02:07:17;;;;;;;9.73;2.47;;;;;;;;;;6214148;23;20091;-92
2022/11/25 02:09:45;;;;;;;17.00;3.03;;;;;;;;;;6215181;22;20379;-94
2022/11/25 02:12:11;;;;;;;13.65;3.78;;;;;;;;;;6215708;23;20240;-92
2022/11/25 02:14:39;;;;;;;15.02;4.00;;;;;;;;;;6214273;23;20413;-91
2022/11/25 02:17:05;;;;;;;15.90;3.65;;;;;;;;;;6214888;23;20008;-92
2022/11/25 02:19:37;;;;;;;22.77;4.30;;;;;;;;;;6214890;23;20012;-92
2022/11/25 02:22:06;;;;;;;22.27;4.13;;;;;;;;;;6213071;23;20004;-92
2022/11/25 02:24:42;;;;;;;20.80;3.05;;;;;;;;;;6217050;23;20004;-93
2022/11/25 02:27:08;;;;;;;20.00;4.38;;;;;;;;;;6213899;23;20019;-93
2022/11/25 02:29:34;;;;;;;23.98;4.00;;;;;;;;;;6189497;23;20024;-91
2022/11/25 02:32:00;;;;;;;23.50;3.75;;;;;;;;;;6215782;23;20312;-93
2022/11/25 02:34:26;;;;;;;24.88;4.03;;;;;;;;;;6191716;23;20008;-93
2022/11/25 02:36:53;;;;;;;19.15;3.78;;;;;;;;;;6187619;23;20583;-92
2022/11/25 02:39:19;;;;;;;20.08;4.07;;;;;;;;;;6215615;23;20385;-92
2022/11/25 02:41:51;;;;;;;30.38;5.13;;;;;;;;;;6190662;23;20420;-93
2022/11/25 02:44:17;;;;;;;18.58;3.65;;;;;;;;;;6213476;23;20004;-94
2022/11/25 02:46:43;;;;;;;24.20;4.47;;;;;;;;;;6215274;23;20000;-93
2022/11/25 02:49:09;;;;;;;17.90;4.78;;;;;;;;;;6191226;23;20631;-93
2022/11/25 02:51:36;;;;;;;11.93;3.20;;;;;;;;;;6192930;23;20054;-93
2022/11/25 02:54:02;;;;;;;18.35;3.72;;;;;;;;;;6193431;23;20005;-94
2022/11/25 02:56:29;;;;;;;25.17;3.92;;;;;;;;;;6194836;23;20035;-92
2022/11/25 02:58:56;;;;;;;16.77;3.40;;;;;;;;;;6219991;23;20004;-93
2022/11/25 03:01:22;;;;;;;18.63;3.03;;;;;;;;;;6194869;23;20059;-92
2022/11/25 03:03:48;;;;;;;18.20;3.75;;;;;;;;;;6194659;23;20220;-93
2022/11/25 03:06:14;;;;;;;19.63;4.72;;;;;;;;;;6217345;23;20015;-93
2022/11/25 03:08:43;;;;;;;26.58;4.20;;;;;;;;;;6192485;23;20016;-93
2022/11/25 03:11:09;;;;;;;14.70;3.60;;;;;;;;;;6192486;22;20020;-93
2022/11/25 03:13:36;;;;;;;21.45;4.18;;;;;;;;;;6192350;23;20020;-92
2022/11/25 03:16:02;;;;;;;9.45;2.88;;;;;;;;;;6216417;23;20008;-93
2022/11/25 03:18:28;;;;;;;35.95;4.85;;;;;;;;;;6192383;23;20004;-94
2022/11/25 03:20:56;;;;;;;19.38;4.68;;;;;;;;;;6191785;23;20341;-94
2022/11/25 03:23:22;;;;;;;21.95;4.70;;;;;;;;;;6191299;23;20068;-93
2022/11/25 03:25:48;;;;;;;22.52;4.80;;;;;;;;;;6218540;23;20019;-93
2022/11/25 03:28:14;;;;;;;25.60;4.47;;;;;;;;;;6192708;23;20012;-93
2022/11/25 03:30:40;;;;;;;8.43;2.50;;;;;;;;;;6192981;23;20059;-93
2022/11/25 03:33:06;;;;;;;15.85;3.47;;;;;;;;;;6196810;23;20051;-91
2022/11/25 03:35:32;;;;;;;17.83;4.70;;;;;;;;;;6195910;23;20008;-94
2022/11/25 03:37:58;;;;;;;19.13;4.07;;;;;;;;;;6195858;23;20004;-93
2022/11/25 03:40:26;;;;;;;20.45;3.13;;;;;;;;;;6195427;23;20018;-93
2022/11/25 03:42:52;;;;;;;28.63;4.85;;;;;;;;;;6194833;23;20016;-93
2022/11/25 03:45:18;;;;;;;14.10;2.85;;;;;;;;;;6195175;23;20023;-93
2022/11/25 03:47:44;;;;;;;22.00;5.30;;;;;;;;;;6195847;23;20527;-93
2022/11/25 03:50:11;;;;;;;24.08;5.72;;;;;;;;;;6193622;23;20040;-93
2022/11/25 03:52:38;;;;;;;19.95;4.45;;;;;;;;;;6218104;23;20004;-93
2022/11/25 03:55:05;;;;;;;16.95;4.38;;;;;;;;;;6191281;23;20007;-95
2022/11/25 03:57:31;;;;;;;23.20;4.65;;;;;;;;;;6218573;23;20012;-93
2022/11/25 03:59:57;;;;;;;20.80;4.80;;;;;;;;;;6194123;23;20008;-93
2022/11/25 04:02:23;;;;;;;17.70;5.00;;;;;;;;;;6217234;23;20005;-93
2022/11/25 04:04:51;;;;;;;20.83;5.85;;;;;;;;;;6194577;23;20098;-94
2022/11/25 04:07:17;;;;;;;24.27;6.13;;;;;;;;;;6196087;23;20429;-94
2022/11/25 04:09:43;;;;;;;19.42;5.30;;;;;;;;;;6194883;23;20348;-93
2022/11/25 04:14:56;;;;;;;31.02;6.40;;;;;;;;;;6224330;23;20015;-94
2022/11/25 04:17:22;;;;;;;15.32;4.93;;;;;;;;;;6218878;23;20008;-93
2022/11/25 04:19:48;;;;;;;23.65;4.50;;;;;;;;;;6218618;23;20333;-94
2022/11/25 04:22:21;;;;;;;13.65;4.85;;;;;;;;;;6192579;23;20471;-94
2022/11/25 04:24:47;;;;;;;29.60;7.38;;;;;;;;;;6194644;23;20008;-92
2022/11/25 04:27:13;;;;;;;29.33;6.15;;;;;;;;;;6191753;23;20547;-94
2022/11/25 04:29:40;;;;;;;22.95;5.50;;;;;;;;;;6219071;23;20039;-93
2022/11/25 04:32:06;;;;;;;22.50;5.88;;;;;;;;;;6220600;23;20004;-93
2022/11/25 04:34:32;;;;;;;22.00;6.25;;;;;;;;;;6195360;23;20008;-94
2022/11/25 04:36:58;;;;;;;30.65;6.45;;;;;;;;;;6198310;23;20015;-93
2022/11/25 04:39:27;;;;;;;19.60;5.25;;;;;;;;;;6221338;23;20023;-93
2022/11/25 04:42:30;;;;;;;26.33;6.40;;;;;;;;;;6221297;23;20049;-94
2022/11/25 04:44:39;;;;;;;30.15;7.63;;;;;;;;;;6226263;23;20042;-94
2022/11/25 04:47:06;;;;;;;36.97;7.20;;;;;;;;;;6221841;23;20491;-95
2022/11/25 04:49:33;;;;;;;35.63;7.82;;;;;;;;;;6194060;23;20027;-94
2022/11/25 04:51:59;;;;;;;36.50;7.78;;;;;;;;;;6195625;23;20247;-93
2022/11/25 04:54:25;;;;;;;39.40;6.90;;;;;;;;;;6195538;23;20062;-94
2022/11/25 04:56:51;;;;;;;27.30;6.60;;;;;;;;;;6194722;23;20035;-94
2022/11/25 05:02:03;;;;;;;29.10;6.07;;;;;;;;;;6221594;23;20019;-93
2022/11/25 05:04:29;;;;;;;25.65;7.85;;;;;;;;;;6220068;23;20000;-93
2022/11/25 05:06:56;;;;;;;28.10;9.10;;;;;;;;;;6193860;23;20008;-94
2022/11/25 05:09:22;;;;;;;51.28;8.73;;;;;;;;;;6194684;23;20004;-93
2022/11/25 05:11:48;;;;;;;26.80;7.30;;;;;;;;;;6219653;22;20061;-94
2022/11/25 05:14:14;;;;;;;33.42;8.52;;;;;;;;;;6193364;23;20019;-94
2022/11/25 05:16:40;;;;;;;28.50;7.70;;;;;;;;;;6192704;23;20023;-92
2022/11/25 05:19:06;;;;;;;24.63;8.48;;;;;;;;;;6192201;23;20008;-94
2022/11/25 05:21:33;;;;;;;31.65;8.10;;;;;;;;;;6192143;23;20004;-92
2022/11/25 05:23:59;;;;;;;26.55;8.52;;;;;;;;;;6191388;23;20015;-93
2022/11/25 05:26:25;;;;;;;33.38;7.97;;;;;;;;;;6191932;23;20008;-93
2022/11/25 05:28:51;;;;;;;37.38;8.60;;;;;;;;;;6192509;23;20020;-92
2022/11/25 05:31:17;;;;;;;33.58;9.73;;;;;;;;;;6192540;23;20008;-92
2022/11/25 05:33:43;;;;;;;33.00;9.25;;;;;;;;;;6215039;23;20007;-93
2022/11/25 05:36:09;;;;;;;51.95;10.77;;;;;;;;;;6215224;23;20012;-92
2022/11/25 05:38:35;;;;;;;48.28;10.63;;;;;;;;;;6216162;23;20012;-92
2022/11/25 05:41:03;;;;;;;37.35;8.77;;;;;;;;;;6192399;23;20039;-93
2022/11/25 05:43:37;;;;;;;41.13;10.25;;;;;;;;;;6190895;23;20020;-93
2022/11/25 05:46:04;;;;;;;28.42;7.35;;;;;;;;;;6216236;23;20008;-93
2022/11/25 05:48:30;;;;;;;32.70;6.43;;;;;;;;;;6214860;23;20008;-93
2022/11/25 05:50:59;;;;;;;34.38;8.60;;;;;;;;;;6217259;23;20012;-93
2022/11/25 05:53:25;;;;;;;35.05;8.77;;;;;;;;;;6214668;23;20079;-93
2022/11/25 05:55:55;;;;;;;41.78;9.93;;;;;;;;;;6213800;23;20377;-93
2022/11/25 05:58:22;;;;;;;52.40;10.18;;;;;;;;;;6215483;23;20014;-93
2022/11/25 06:00:48;;;;;;;55.03;8.68;;;;;;;;;;6214263;23;20015;-92
2022/11/25 06:03:14;;;;;;;36.95;8.18;;;;;;;;;;6216311;23;20420;-93
2022/11/25 06:05:40;;;;;;;35.80;5.25;;;;;;;;;;6214393;23;20495;-93
2022/11/25 06:08:09;;;;;;;21.75;5.68;;;;;;;;;;6188679;23;20095;-94
2022/11/25 06:10:48;;;;;;;35.13;8.90;;;;;;;;;;6213018;22;20020;-94
2022/11/25 06:13:14;;;;;;;18.10;7.65;;;;;;;;;;6189327;23;20012;-93
2022/11/25 06:15:41;;;;;;;22.48;4.97;;;;;;;;;;6189296;23;20019;-92
2022/11/25 06:18:08;;;;;;;23.80;6.32;;;;;;;;;;6213793;23;20015;-92
2022/11/25 06:20:34;;;;;;;40.38;8.40;;;;;;;;;;6189745;23;20126;-92
2022/11/25 06:23:00;;;;;;;37.25;10.13;;;;;;;;;;6214429;23;20038;-93
2022/11/25 06:25:26;;;;;;;25.27;8.73;;;;;;;;;;6188013;23;20016;-93
2022/11/25 06:27:52;;;;;;;15.50;6.18;;;;;;;;;;6189539;23;20012;-92
2022/11/25 06:30:18;;;;;;;24.83;8.68;;;;;;;;;;6189297;23;20471;-92
2022/11/25 06:32:44;;;;;;;40.55;7.43;;;;;;;;;;6215853;23;20722;-93
2022/11/25 06:35:10;;;;;;;17.77;4.57;;;;;;;;;;6215224;23;20047;-92
2022/11/25 06:37:36;;;;;;;30.55;8.65;;;;;;;;;;6216140;23;20008;-92
2022/11/25 06:40:03;;;;;;;28.55;8.52;;;;;;;;;;6194735;23;20051;-92
2022/11/25 06:42:29;;;;;;;26.38;7.03;;;;;;;;;;6220668;23;20016;-93
2022/11/25 06:44:55;;;;;;;37.78;9.52;;;;;;;;;;6197183;23;20097;-93
2022/11/25 06:47:21;;;;;;;44.58;8.32;;;;;;;;;;6205558;23;20042;-92
2022/11/25 06:49:48;;;;;;;25.58;7.55;;;;;;;;;;6231045;23;20012;-91
2022/11/25 06:52:14;;;;;;;28.90;7.75;;;;;;;;;;6224138;23;20360;-92
2022/11/25 06:54:40;;;;;;;33.50;7.90;;;;;;;;;;6220213;23;20001;-92
2022/11/25 06:57:10;;;;;;;25.30;7.45;;;;;;;;;;6216792;23;20003;-91
2022/11/25 06:59:36;;;;;;;24.92;8.50;;;;;;;;;;6220026;23;20030;-91
2022/11/25 07:02:02;;;;;;;34.97;8.98;;;;;;;;;;6192874;23;20511;-91
2022/11/25 07:04:28;;;;;;;32.97;7.57;;;;;;;;;;6217226;23;20069;-92
2022/11/25 07:06:54;;;;;;;33.53;8.70;;;;;;;;;;6191103;23;20388;-92
2022/11/25 07:09:21;;;;;;;38.72;8.70;;;;;;;;;;6194084;23;20000;-92
2022/11/25 07:12:00;;;;;;;33.83;7.65;;;;;;;;;;6194259;22;20020;-92
2022/11/25 07:14:26;;;;;;;38.10;7.13;;;;;;;;;;6193169;23;20008;-92
2022/11/25 07:16:52;;;;;;;35.35;8.82;;;;;;;;;;6219234;23;20004;-92
2022/11/25 07:19:18;;;;;;;23.42;6.72;;;;;;;;;;6191059;23;20420;-92
2022/11/25 07:21:45;;;;;;;28.92;7.50;;;;;;;;;;6218554;23;20417;-91
2022/11/25 07:24:15;;;;;;;26.33;7.47;;;;;;;;;;6191275;23;20276;-92
2022/11/25 07:26:42;;;;;;;16.45;5.03;;;;;;;;;;6217400;23;20034;-92
2022/11/25 07:29:09;;;;;;;36.25;8.02;;;;;;;;;;6191328;23;20027;-91
2022/11/25 07:31:36;;;;;;;23.20;6.50;;;;;;;;;;6216194;23;20012;-91
2022/11/25 07:34:04;;;;;;;4.47;2.80;;;;;;;;;;6218366;23;20072;-91
2022/11/25 07:36:35;;;;;;;24.88;6.07;;;;;;;;;;6217210;23;20069;-92
2022/11/25 07:39:03;;;;;;;17.60;5.32;;;;;;;;;;6214775;23;20551;-92
2022/11/25 07:41:29;;;;;;;26.33;5.35;;;;;;;;;;6214783;23;20090;-92
2022/11/25 07:43:57;;;;;;;16.20;5.10;;;;;;;;;;6216205;23;20099;-91
2022/11/25 07:46:24;;;;;;;26.67;5.38;;;;;;;;;;6218206;23;20004;-92
2022/11/25 07:48:51;;;;;;;16.92;5.60;;;;;;;;;;6216732;23;20012;-91
2022/11/25 07:51:19;;;;;;;23.15;6.50;;;;;;;;;;6214523;23;20070;-91
2022/11/25 07:53:45;;;;;;;23.63;5.10;;;;;;;;;;6214079;23;20008;-93
2022/11/25 07:56:11;;;;;;;17.50;4.85;;;;;;;;;;6215638;23;20356;-92
2022/11/25 07:58:37;;;;;;;26.40;4.97;;;;;;;;;;6214933;23;20428;-91
2022/11/25 08:01:04;;;;;;;9.27;2.83;;;;;;;;;;6217273;23;20012;-91
2022/11/25 08:03:34;;;;;;;24.63;6.38;;;;;;;;;;6187557;23;20012;-91
2022/11/25 08:06:01;;;;;;;24.27;4.68;;;;;;;;;;6190952;23;20012;-91
2022/11/25 08:08:27;;;;;;;13.68;3.83;;;;;;;;;;6213247;23;20016;-91
2022/11/25 08:10:53;;;;;;;28.20;4.78;;;;;;;;;;6193260;22;20100;-91
2022/11/25 08:13:27;;;;;;;15.20;3.70;;;;;;;;;;6191768;22;20020;-92
2022/11/25 08:15:53;;;;;;;17.52;3.58;;;;;;;;;;6214655;23;20510;-91
2022/11/25 08:18:19;;;;;;;17.52;3.38;;;;;;;;;;6189170;23;20459;-91
2022/11/25 08:20:45;;;;;;;24.02;4.32;;;;;;;;;;6188464;23;20019;-91
2022/11/25 08:23:11;;;;;;;16.20;4.22;;;;;;;;;;6190729;23;20020;-91
2022/11/25 08:25:40;;;;;;;21.25;3.90;;;;;;;;;;6190015;23;20012;-91
2022/11/25 08:28:06;;;;;;;8.63;2.58;;;;;;;;;;6214783;23;20039;-92
2022/11/25 08:30:33;;;;;;;23.92;4.22;;;;;;;;;;6214505;23;20008;-92
2022/11/25 08:32:59;;;;;;;17.20;4.32;;;;;;;;;;6215370;23;20083;-91
2022/11/25 08:35:26;;;;;;;18.30;3.75;;;;;;;;;;6214257;23;20008;-91
2022/11/25 08:37:52;;;;;;;11.57;3.70;;;;;;;;;;6215973;23;20008;-92
2022/11/25 08:40:18;;;;;;;16.45;3.85;;;;;;;;;;6192709;23;20341;-91
2022/11/25 08:42:44;;;;;;;12.70;4.18;;;;;;;;;;6193607;23;20310;-91
2022/11/25 08:45:11;;;;;;;17.58;4.57;;;;;;;;;;6193034;23;20050;-91
2022/11/25 08:47:37;;;;;;;21.60;4.32;;;;;;;;;;6216689;23;20090;-91
2022/11/25 08:50:07;;;;;;;12.15;3.53;;;;;;;;;;6188848;23;20012;-90
2022/11/25 08:52:33;;;;;;;9.15;3.63;;;;;;;;;;6215729;23;20083;-91
2022/11/25 08:54:59;;;;;;;11.15;3.40;;;;;;;;;;6213529;23;20012;-91
2022/11/25 08:57:25;;;;;;;13.30;4.10;;;;;;;;;;6188222;23;20012;-91
2022/11/25 08:59:51;;;;;;;15.25;4.03;;;;;;;;;;6189885;23;20047;-91
2022/11/25 09:02:18;;;;;;;11.65;3.78;;;;;;;;;;6189840;23;20087;-91
2022/11/25 09:04:44;;;;;;;16.88;3.90;;;;;;;;;;6190522;23;20613;-91
2022/11/25 09:07:10;;;;;;;17.25;4.07;;;;;;;;;;6189624;23;20012;-91
2022/11/25 09:09:36;;;;;;;9.48;3.00;;;;;;;;;;6214775;23;20395;-90
2022/11/25 09:12:02;;;;;;;9.52;2.92;;;;;;;;;;6190073;22;20016;-92
2022/11/25 09:14:28;;;;;;;14.18;4.60;;;;;;;;;;6213977;23;20004;-90
2022/11/25 09:16:55;;;;;;;16.55;3.63;;;;;;;;;;6189304;23;20008;-90
2022/11/25 09:19:22;;;;;;;17.10;3.63;;;;;;;;;;6191561;23;20014;-90
2022/11/25 09:21:48;;;;;;;12.02;3.50;;;;;;;;;;6216109;23;20004;-90
2022/11/25 09:24:14;;;;;;;13.40;4.65;;;;;;;;;;6189448;23;20020;-91
2022/11/25 09:26:41;;;;;;;11.05;3.58;;;;;;;;;;6191283;23;20415;-90
2022/11/25 09:29:07;;;;;;;7.32;1.63;;;;;;;;;;6190359;23;20008;-90
2022/11/25 09:31:33;;;;;;;17.00;4.13;;;;;;;;;;6190564;23;20019;-91
2022/11/25 09:34:00;;;;;;;16.40;4.18;;;;;;;;;;6213991;23;20004;-90
2022/11/25 09:36:26;;;;;;;12.90;4.35;;;;;;;;;;6213090;23;20000;-91
2022/11/25 09:38:52;;;;;;;15.63;4.22;;;;;;;;;;6215874;23;20008;-90
2022/11/25 09:46:40;;;;;;;8.40;3.45;;;;;;;;;;6216095;23;20015;-90
2022/11/25 09:47:17;;;;;;;7.03;2.03;;;;;;;;;;6241667;23;20392;-90
2022/11/25 09:49:49;;;;;;;9.73;3.25;;;;;;;;;;6214185;23;20008;-91
2022/11/25 09:52:33;;;;;;;13.63;3.00;;;;;;;;;;6216581;23;20008;-90
2022/11/25 09:55:03;;;;;;;12.00;3.53;;;;;;;;;;6212867;23;20337;-91
2022/11/25 09:57:44;;;;;;;8.48;2.30;;;;;;;;;;6215821;23;20337;-90
2022/11/25 10:00:16;;;;;;;11.63;3.05;;;;;;;;;;6216504;23;20014;-91
2022/11/25 10:02:51;;;;;;;9.02;2.92;;;;;;;;;;6216469;23;20157;-91
2022/11/25 10:05:25;;;;;;;10.10;3.13;;;;;;;;;;6214163;23;20008;-91
2022/11/25 10:07:52;;;;;;;12.75;4.03;;;;;;;;;;6217324;23;20352;-92
2022/11/25 10:10:24;;;;;;;7.03;2.35;;;;;;;;;;6214359;23;20008;-91
2022/11/25 10:12:50;;;;;;;11.85;2.67;;;;;;;;;;6215362;22;20016;-91
2022/11/25 10:15:23;;;;;;;11.40;2.88;;;;;;;;;;6192672;23;20013;-91
2022/11/25 10:17:52;;;;;;;6.88;3.10;;;;;;;;;;6214052;23;20628;-91
2022/11/25 10:20:27;;;;;;;15.85;3.40;;;;;;;;;;6212655;23;20011;-92
2022/11/25 10:22:55;;;;;;;8.23;2.83;;;;;;;;;;6215855;23;20428;-91
2022/11/25 10:25:27;;;;;;;7.68;2.30;;;;;;;;;;6215244;23;20397;-91
2022/11/25 10:27:58;;;;;;;8.95;2.75;;;;;;;;;;6213467;23;20008;-90
2022/11/25 10:30:39;;;;;;;13.52;4.85;;;;;;;;;;6218605;23;20058;-91
2022/11/25 10:33:14;;;;;;;12.23;2.92;;;;;;;;;;6220410;23;20058;-91
2022/11/25 10:35:46;;;;;;;13.68;3.22;;;;;;;;;;6223004;23;20012;-92
2022/11/25 10:38:15;;;;;;;10.90;3.00;;;;;;;;;;6229027;23;20015;-91
2022/11/25 10:40:44;;;;;;;9.63;2.60;;;;;;;;;;6230664;23;20016;-90
2022/11/25 10:43:13;;;;;;;9.40;2.72;;;;;;;;;;6226107;23;20003;-91
2022/11/25 10:45:53;;;;;;;7.75;2.30;;;;;;;;;;6225369;23;20018;-91
2022/11/25 10:48:32;;;;;;;8.55;3.13;;;;;;;;;;6220361;23;20451;-91
2022/11/25 10:51:17;;;;;;;12.32;3.15;;;;;;;;;;6220449;23;20328;-91
2022/11/25 10:54:02;;;;;;;14.23;3.40;;;;;;;;;;6220599;23;20000;-91
2022/11/25 10:56:28;;;;;;;8.05;2.42;;;;;;;;;;6219163;23;20000;-93
2022/11/25 10:58:55;;;;;;;17.73;3.30;;;;;;;;;;6217452;23;20066;-91
2022/11/25 11:01:24;;;;;;;11.68;2.88;;;;;;;;;;6192969;23;20104;-91
2022/11/25 11:04:14;;;;;;;7.50;2.20;;;;;;;;;;6215782;23;20015;-91
2022/11/25 11:06:44;;;;;;;16.33;3.05;;;;;;;;;;6203236;23;20039;-93
2022/11/25 11:09:29;;;;;;;11.20;2.92;;;;;;;;;;6217351;23;20012;-92
2022/11/25 11:11:55;;;;;;;14.55;3.10;;;;;;;;;;6218276;22;20043;-92
2022/11/25 11:14:21;;;;;;;10.25;2.85;;;;;;;;;;6192817;23;20012;-91
2022/11/25 11:16:54;;;;;;;10.63;2.45;;;;;;;;;;6219284;23;20012;-92
2022/11/25 11:19:28;;;;;;;7.43;2.90;;;;;;;;;;6217574;23;20028;-91
2022/11/25 11:21:55;;;;;;;10.88;2.70;;;;;;;;;;6217100;23;20008;-92
2022/11/25 11:24:40;;;;;;;11.50;3.33;;;;;;;;;;6217739;23;20051;-91
2022/11/25 11:27:16;;;;;;;11.30;2.83;;;;;;;;;;6215222;23;20000;-92
2022/11/25 11:29:42;;;;;;;8.23;2.70;;;;;;;;;;6217041;23;20026;-91
2022/11/25 11:32:19;;;;;;;9.85;3.10;;;;;;;;;;6193047;23;20475;-91
2022/11/25 11:35:09;;;;;;;16.50;3.28;;;;;;;;;;6217112;23;20087;-90
2022/11/25 11:37:35;;;;;;;12.63;2.58;;;;;;;;;;6161566;23;20008;-91
2022/11/25 11:40:01;;;;;;;13.82;3.05;;;;;;;;;;6218572;23;20049;-89
2022/11/25 11:42:43;;;;;;;10.95;3.33;;;;;;;;;;6216167;23;20015;-90
2022/11/25 11:45:20;;;;;;;12.77;2.75;;;;;;;;;;6242316;23;20008;-89
2022/11/25 11:48:04;;;;;;;4.30;1.70;;;;;;;;;;6216038;23;20023;-91
2022/11/25 11:50:35;;;;;;;9.93;2.40;;;;;;;;;;6214043;23;20451;-90
2022/11/25 11:53:11;;;;;;;14.60;3.45;;;;;;;;;;6216665;23;20035;-91
2022/11/25 11:55:43;;;;;;;15.90;2.85;;;;;;;;;;6213312;23;20004;-91
2022/11/25 11:58:28;;;;;;;19.02;3.45;;;;;;;;;;6216109;23;20031;-92
2022/11/25 12:01:07;;;;;;;10.25;3.10;;;;;;;;;;6213806;23;20012;-91
2022/11/25 12:03:36;;;;;;;12.18;3.33;;;;;;;;;;6213977;23;20427;-91
2022/11/25 12:06:04;;;;;;;8.30;2.63;;;;;;;;;;6216349;23;20510;-91
2022/11/25 12:08:39;;;;;;;12.02;2.28;;;;;;;;;;6216709;23;20004;-91
2022/11/25 12:11:10;;;;;;;6.43;2.00;;;;;;;;;;6217216;23;20005;-92
2022/11/25 12:13:48;;;;;;;11.38;3.15;;;;;;;;;;6216650;22;20024;-91
2022/11/25 12:16:29;;;;;;;12.95;3.03;;;;;;;;;;6215685;23;20015;-91
2022/11/25 12:18:58;;;;;;;11.13;2.15;;;;;;;;;;6214708;23;20019;-91
2022/11/25 12:21:57;;;;;;;7.30;2.88;;;;;;;;;;6241322;23;20019;-91
2022/11/25 12:24:32;;;;;;;9.73;2.30;;;;;;;;;;6148423;23;20039;-92
2022/11/25 12:26:58;;;;;;;12.87;3.27;;;;;;;;;;6215421;23;20502;-92
2022/11/25 12:29:33;;;;;;;10.93;2.88;;;;;;;;;;6216000;23;20261;-91
2022/11/25 12:32:12;;;;;;;17.67;2.85;;;;;;;;;;6215129;23;20004;-91
2022/11/25 12:34:43;;;;;;;11.90;3.45;;;;;;;;;;6212273;23;20008;-90
2022/11/25 12:37:32;;;;;;;11.65;3.67;;;;;;;;;;6216686;23;20005;-91
2022/11/25 12:40:28;;;;;;;13.57;2.70;;;;;;;;;;6201369;23;20038;-92
2022/11/25 12:42:59;;;;;;;13.57;2.78;;;;;;;;;;6191060;23;20055;-92
2022/11/25 12:45:26;;;;;;;14.88;2.63;;;;;;;;;;6214677;23;20406;-91
2022/11/25 12:47:52;;;;;;;10.63;2.78;;;;;;;;;;6191351;23;20012;-91
2022/11/25 12:50:38;;;;;;;19.88;4.18;;;;;;;;;;6213746;23;20008;-91
2022/11/25 12:53:23;;;;;;;12.97;2.30;;;;;;;;;;6215638;23;20428;-91
2022/11/25 12:55:49;;;;;;;12.52;2.72;;;;;;;;;;6215175;23;20038;-91
2022/11/25 12:58:15;;;;;;;11.07;2.63;;;;;;;;;;6189781;23;20010;-91
2022/11/25 13:00:47;;;;;;;13.10;2.28;;;;;;;;;;6215456;23;20012;-92
2022/11/25 13:03:32;;;;;;;15.02;2.72;;;;;;;;;;6241327;23;20008;-91
2022/11/25 13:05:58;;;;;;;16.20;2.50;;;;;;;;;;6216189;23;20358;-91
2022/11/25 13:08:43;;;;;;;17.65;2.42;;;;;;;;;;6215605;23;20084;-90
2022/11/25 13:11:21;;;;;;;14.25;3.78;;;;;;;;;;6215164;23;20007;-92
2022/11/25 13:14:03;;;;;;;10.85;2.53;;;;;;;;;;6215379;22;20051;-91
2022/11/25 13:16:32;;;;;;;23.35;2.63;;;;;;;;;;6215472;23;20036;-92
2022/11/25 13:18:58;;;;;;;15.65;2.45;;;;;;;;;;6192235;23;20088;-92
2022/11/25 13:21:26;;;;;;;13.88;3.22;;;;;;;;;;6190517;23;20066;-91
2022/11/25 13:23:55;;;;;;;20.35;3.47;;;;;;;;;;6214962;23;20444;-92
2022/11/25 13:26:35;;;;;;;17.77;2.70;;;;;;;;;;6215771;23;20007;-92
2022/11/25 13:29:07;;;;;;;22.27;2.45;;;;;;;;;;6213244;23;20095;-91
2022/11/25 13:31:53;;;;;;;17.02;2.72;;;;;;;;;;6216052;23;20008;-92
2022/11/25 13:34:19;;;;;;;19.08;3.17;;;;;;;;;;6188574;23;20520;-91
2022/11/25 13:36:56;;;;;;;20.48;5.07;;;;;;;;;;6216336;23;20019;-92
2022/11/25 13:39:28;;;;;;;16.95;2.75;;;;;;;;;;6214843;23;20008;-92
2022/11/25 13:42:01;;;;;;;15.52;2.65;;;;;;;;;;6214663;23;20008;-91
2022/11/25 13:44:31;;;;;;;17.98;2.33;;;;;;;;;;6216074;23;20439;-92
2022/11/25 13:46:58;;;;;;;15.25;2.80;;;;;;;;;;6214578;23;20004;-91
2022/11/25 13:49:42;;;;;;;11.23;3.25;;;;;;;;;;6214075;23;20012;-92
2022/11/25 13:52:11;;;;;;;17.42;2.70;;;;;;;;;;6214802;23;20019;-93
2022/11/25 13:54:58;;;;;;;13.15;2.17;;;;;;;;;;6212695;23;20397;-93
2022/11/25 13:57:24;;;;;;;25.00;3.45;;;;;;;;;;6241337;23;20030;-93
2022/11/25 14:00:01;;;;;;;15.52;2.42;;;;;;;;;;6216434;23;20027;-91
2022/11/25 14:02:27;;;;;;;13.63;2.85;;;;;;;;;;6215376;23;20082;-92
2022/11/25 14:05:03;;;;;;;14.45;4.03;;;;;;;;;;6215099;23;20330;-92
2022/11/25 14:07:29;;;;;;;;;;;;;;;;;;6218040;23;20452;-92
2022/11/25 14:10:04;;;;;;;19.77;2.95;;;;;;;;;;6215464;23;19903;-91
2022/11/25 14:12:31;;;;;;;21.38;3.47;;;;;;;;;;6218074;22;20038;-92
2022/11/25 14:15:16;;;;;;;15.55;2.58;;;;;;;;;;6214067;23;20010;-92
2022/11/25 14:18:01;;;;;;;18.27;2.97;;;;;;;;;;6213696;23;20375;-92
2022/11/25 14:20:36;;;;;;;20.55;3.30;;;;;;;;;;6215398;23;20007;-92
2022/11/25 14:23:03;;;;;;;16.73;2.97;;;;;;;;;;6215738;23;20424;-90
2022/11/25 14:25:41;;;;;;;25.50;3.53;;;;;;;;;;6213247;23;20433;-93
2022/11/25 14:28:09;;;;;;;19.08;3.08;;;;;;;;;;6212038;23;20008;-92
2022/11/25 14:30:43;;;;;;;25.05;4.00;;;;;;;;;;6215754;23;20022;-92
2022/11/25 14:33:12;;;;;;;16.65;2.35;;;;;;;;;;6215108;23;20008;-93
2022/11/25 14:35:43;;;;;;;16.75;4.25;;;;;;;;;;6216615;23;20004;-91
2022/11/25 14:38:19;;;;;;;16.58;2.90;;;;;;;;;;6218522;23;20008;-92
2022/11/25 14:40:50;;;;;;;24.63;4.35;;;;;;;;;;6217731;23;20004;-91
2022/11/25 14:43:19;;;;;;;13.30;2.97;;;;;;;;;;6219479;23;20012;-92
2022/11/25 14:45:45;;;;;;;20.17;3.30;;;;;;;;;;6223250;23;20015;-92
2022/11/25 14:48:15;;;;;;;13.77;2.50;;;;;;;;;;6200656;23;20012;-92
2022/11/25 14:50:53;;;;;;;18.80;3.05;;;;;;;;;;6221612;23;20463;-92
2022/11/25 14:53:19;;;;;;;10.88;2.97;;;;;;;;;;6225232;23;20000;-92
2022/11/25 14:55:47;;;;;;;16.95;3.50;;;;;;;;;;6193548;23;20061;-92